Bowlus, MN (56314)

2:41 PM CDT on September 01, 2015 (GMT -0500)
barley rd nw | | Change Station
CLOSE
Current Station
Personal Weather Station
Location: Royalton, MN
Elevation: 1047 ft
Nearby Weather Stations

Elev 1047 ft 45.79 °N, 94.31 °W | Updated 10 minutes ago

Clear
Clear
85.1 °F
Feels Like 95 °F
N
2.7
Wind Variable Wind from East

Today
High -- | Low -- °F
--% Chance of Precip.
Yesterday
High -- | Low -- °F
Precip. -- in
6:38 AM 7:55 PM
Waning Gibbous, 87% visible
Pressure 29.90 in
Visibility 10.0 miles
Clouds Clear
Heat Index 95 °F
Dew Point 76 °F
Humidity 74%
Rainfall 0.00 in
Snow Depth Not available.
UV 7 out of 12
Pollen 9.80 out of 12
Air Quality Not available.
Flu Activity Not available.
METAR KLXL 011934Z AUTO 16003KT 10SM CLR 28/18 A2990 RMK AO2
Pressure 29.90 in
Visibility 10.0 miles
Clouds Clear
Heat Index 95 °F
Dew Point 76 °F
Humidity 74%
Rainfall 0.00 in
Snow Depth Not available.
UV 7 out of 12
Pollen 9.80 out of 12
Air Quality Not available.
Flu Activity Not available.
METAR KLXL 011934Z AUTO 16003KT 10SM CLR 28/18 A2990 RMK AO2

10-Day Weather Forecast

×

Almanac

Astronomy

Sep. 01, 2015 Rise Set
Actual Time
Civil Twilight
Nautical Twilight
Astronomical Twilight
Moon
Length of Visible Light
Length of Day
Tomorrow will be .
, % of the Moon is Illuminated

Today's Extremes

State Highs State Lows

Community

WunderPhotos

Upload Photos

1,851,597 photos uploaded!

WunderBlogs® & News

Nearby

Air Quality

  Air Quality AQ Index Pollutant
Not available.

Snow Depth

Station Depth Elevation

Earthquake Activity

City Distance Mag. Time & Date
Minimum magnitude displayed is 2.5.

Coastal Water Temperatures

Place Temperature

Stations

Nearby Weather Stations

Station Location Temp. Windchill Dew Point Humidity Wind Precip. Elev Updated Type